< < Back
Terminal Aerodrome Forecast


Current Version              Previous Versions:   1  2  3  4  5  6  7  8  9  

Terminal Aerodrome Forecast

552
FTUS42 KGSP 301453 AAA
TAFCLT
TAF AMD
KCLT 301453Z 3015/0112 12007KT P6SM BKN015
     FM301800 13007KT P6SM SCT015 SCT035 BKN100
     FM302000 13008KT P6SM VCSH BKN035
      TEMPO 3021/0101 VRB10G20KT 4SM -TSRA OVC025CB
     FM010100 13009KT P6SM VCSH OVC025=

Latest METAR

608
SAUS70 KWBC 301500 RRA
MTRCLT
METAR KCLT 301452Z 05006KT 2SM BKN018 OVC080 22/17 A3008 RMK AO2 SFC VIS
10 SLP179 T02170172 52012


USA.gov is the U.S. government's official web portal to all federal, state and local government web resources and services.